LFMK 301030Z AUTO 08014KT 050V110 9999 SCT023 23/16 Q1016

ElémentsDécodage
LFMK Station météo située sur l'aérodrome de CARCASSONNE Salvaza
301030Z émis le 30 du mois à 10h30 UTC
AUTO Bulletin édité par un automate
08014KT vent du 080°, 14 noeuds
050V110 vent de direction variable entre 050° et 110°
9999 visibilité horizontale supérieure à 10 Km
SCT023 nuages épars (3/8 à 4/8) à 2300 pieds
23/16 température 23°C, point de rosée 16°C
 soit une humidité relative de 65%
Q1016 la pression au niveau de la mer (QNH) est de 1016 hPa